sensor_id;sensor_type;location;lat;lon;timestamp;P1;durP1;ratioP1;P2;durP2;ratioP2
13374;SDS011;6756;51.354;15.754;2023-04-15T00:01:54;51.20;;;33.87;;
13374;SDS011;6756;51.354;15.754;2023-04-15T00:06:04;59.07;;;36.70;;
13374;SDS011;6756;51.354;15.754;2023-04-15T00:10:10;45.73;;;30.80;;
13374;SDS011;6756;51.354;15.754;2023-04-15T00:14:14;44.97;;;30.87;;
13374;SDS011;6756;51.354;15.754;2023-04-15T00:18:15;42.30;;;29.97;;
13374;SDS011;6756;51.354;15.754;2023-04-15T00:22:16;37.80;;;25.43;;
13374;SDS011;6756;51.354;15.754;2023-04-15T00:26:17;33.80;;;24.23;;
13374;SDS011;6756;51.354;15.754;2023-04-15T00:30:19;29.17;;;22.77;;
13374;SDS011;6756;51.354;15.754;2023-04-15T00:34:27;28.27;;;23.03;;
13374;SDS011;6756;51.354;15.754;2023-04-15T00:38:28;27.97;;;21.93;;
13374;SDS011;6756;51.354;15.754;2023-04-15T00:42:29;30.33;;;24.10;;
13374;SDS011;6756;51.354;15.754;2023-04-15T00:46:36;28.97;;;22.30;;
13374;SDS011;6756;51.354;15.754;2023-04-15T00:50:38;27.43;;;22.20;;
13374;SDS011;6756;51.354;15.754;2023-04-15T00:54:47;31.70;;;25.23;;
13374;SDS011;6756;51.354;15.754;2023-04-15T00:58:51;32.00;;;24.63;;
13374;SDS011;6756;51.354;15.754;2023-04-15T01:02:56;40.73;;;29.70;;
13374;SDS011;6756;51.354;15.754;2023-04-15T01:06:57;43.50;;;31.37;;
13374;SDS011;6756;51.354;15.754;2023-04-15T01:11:00;58.13;;;40.90;;
13374;SDS011;6756;51.354;15.754;2023-04-15T01:15:02;54.80;;;39.53;;
13374;SDS011;6756;51.354;15.754;2023-04-15T01:19:05;64.37;;;42.47;;
13374;SDS011;6756;51.354;15.754;2023-04-15T01:23:08;53.63;;;35.80;;
13374;SDS011;6756;51.354;15.754;2023-04-15T01:27:09;47.10;;;33.63;;
13374;SDS011;6756;51.354;15.754;2023-04-15T01:31:11;40.27;;;29.60;;
13374;SDS011;6756;51.354;15.754;2023-04-15T01:35:13;47.57;;;32.43;;
13374;SDS011;6756;51.354;15.754;2023-04-15T01:39:14;47.37;;;31.00;;
13374;SDS011;6756;51.354;15.754;2023-04-15T01:43:15;32.60;;;24.53;;
13374;SDS011;6756;51.354;15.754;2023-04-15T01:47:16;29.63;;;22.37;;
13374;SDS011;6756;51.354;15.754;2023-04-15T01:51:21;31.20;;;22.83;;
13374;SDS011;6756;51.354;15.754;2023-04-15T01:55:22;27.77;;;22.33;;
13374;SDS011;6756;51.354;15.754;2023-04-15T01:59:23;28.03;;;21.17;;
13374;SDS011;6756;51.354;15.754;2023-04-15T02:03:24;26.47;;;20.83;;
13374;SDS011;6756;51.354;15.754;2023-04-15T02:07:25;25.57;;;18.57;;
13374;SDS011;6756;51.354;15.754;2023-04-15T02:11:27;22.57;;;18.17;;
13374;SDS011;6756;51.354;15.754;2023-04-15T02:15:29;22.90;;;17.47;;
13374;SDS011;6756;51.354;15.754;2023-04-15T02:19:29;19.37;;;15.60;;
13374;SDS011;6756;51.354;15.754;2023-04-15T02:23:31;19.70;;;16.47;;
13374;SDS011;6756;51.354;15.754;2023-04-15T02:27:32;20.43;;;16.37;;
13374;SDS011;6756;51.354;15.754;2023-04-15T02:31:33;21.73;;;15.97;;
13374;SDS011;6756;51.354;15.754;2023-04-15T02:35:37;21.63;;;17.70;;
13374;SDS011;6756;51.354;15.754;2023-04-15T02:39:43;19.90;;;16.17;;
13374;SDS011;6756;51.354;15.754;2023-04-15T02:43:44;18.37;;;16.03;;
13374;SDS011;6756;51.354;15.754;2023-04-15T02:47:48;17.20;;;14.23;;
13374;SDS011;6756;51.354;15.754;2023-04-15T02:51:49;18.53;;;15.67;;
13374;SDS011;6756;51.354;15.754;2023-04-15T02:55:51;16.97;;;15.13;;
13374;SDS011;6756;51.354;15.754;2023-04-15T02:59:51;18.70;;;14.47;;
13374;SDS011;6756;51.354;15.754;2023-04-15T03:03:52;18.73;;;16.57;;
13374;SDS011;6756;51.354;15.754;2023-04-15T03:07:53;18.60;;;14.40;;
13374;SDS011;6756;51.354;15.754;2023-04-15T03:11:54;19.37;;;16.30;;
13374;SDS011;6756;51.354;15.754;2023-04-15T03:15:56;17.93;;;14.23;;
13374;SDS011;6756;51.354;15.754;2023-04-15T03:20:00;20.87;;;17.07;;
13374;SDS011;6756;51.354;15.754;2023-04-15T03:24:02;18.27;;;15.43;;
13374;SDS011;6756;51.354;15.754;2023-04-15T03:28:03;16.10;;;13.83;;
13374;SDS011;6756;51.354;15.754;2023-04-15T03:32:05;17.57;;;15.00;;
13374;SDS011;6756;51.354;15.754;2023-04-15T03:36:06;37.77;;;22.90;;
13374;SDS011;6756;51.354;15.754;2023-04-15T03:40:07;20.43;;;16.23;;
13374;SDS011;6756;51.354;15.754;2023-04-15T03:44:11;19.60;;;17.40;;
13374;SDS011;6756;51.354;15.754;2023-04-15T03:48:13;21.33;;;15.30;;
13374;SDS011;6756;51.354;15.754;2023-04-15T03:52:13;17.97;;;15.20;;
13374;SDS011;6756;51.354;15.754;2023-04-15T03:56:14;41.63;;;29.60;;
13374;SDS011;6756;51.354;15.754;2023-04-15T04:00:16;20.37;;;16.60;;
13374;SDS011;6756;51.354;15.754;2023-04-15T04:04:17;23.97;;;20.17;;
13374;SDS011;6756;51.354;15.754;2023-04-15T04:08:18;21.80;;;17.77;;
13374;SDS011;6756;51.354;15.754;2023-04-15T04:12:20;30.77;;;25.07;;
13374;SDS011;6756;51.354;15.754;2023-04-15T04:16:30;27.63;;;21.30;;
13374;SDS011;6756;51.354;15.754;2023-04-15T04:20:37;20.93;;;17.30;;
13374;SDS011;6756;51.354;15.754;2023-04-15T04:24:38;25.37;;;17.57;;
13374;SDS011;6756;51.354;15.754;2023-04-15T04:28:39;18.07;;;16.07;;
13374;SDS011;6756;51.354;15.754;2023-04-15T04:32:40;20.00;;;17.03;;
13374;SDS011;6756;51.354;15.754;2023-04-15T04:36:41;21.63;;;18.07;;
13374;SDS011;6756;51.354;15.754;2023-04-15T04:40:43;20.93;;;15.77;;
13374;SDS011;6756;51.354;15.754;2023-04-15T04:44:45;21.60;;;16.60;;
13374;SDS011;6756;51.354;15.754;2023-04-15T04:48:46;22.53;;;18.33;;
13374;SDS011;6756;51.354;15.754;2023-04-15T04:52:47;22.20;;;17.23;;
13374;SDS011;6756;51.354;15.754;2023-04-15T04:56:48;20.17;;;16.50;;
13374;SDS011;6756;51.354;15.754;2023-04-15T05:00:49;20.63;;;18.03;;
13374;SDS011;6756;51.354;15.754;2023-04-15T05:04:51;23.90;;;18.70;;
13374;SDS011;6756;51.354;15.754;2023-04-15T05:08:53;21.37;;;16.80;;
13374;SDS011;6756;51.354;15.754;2023-04-15T05:12:56;20.67;;;16.03;;
13374;SDS011;6756;51.354;15.754;2023-04-15T05:16:57;21.63;;;16.80;;
13374;SDS011;6756;51.354;15.754;2023-04-15T05:20:58;23.37;;;19.43;;
13374;SDS011;6756;51.354;15.754;2023-04-15T05:24:59;29.90;;;22.30;;
13374;SDS011;6756;51.354;15.754;2023-04-15T05:29:00;38.97;;;28.07;;
13374;SDS011;6756;51.354;15.754;2023-04-15T05:33:01;35.67;;;27.63;;
13374;SDS011;6756;51.354;15.754;2023-04-15T05:37:03;23.13;;;18.70;;
13374;SDS011;6756;51.354;15.754;2023-04-15T05:41:04;18.87;;;16.77;;
13374;SDS011;6756;51.354;15.754;2023-04-15T05:45:05;29.43;;;23.27;;
13374;SDS011;6756;51.354;15.754;2023-04-15T05:49:08;41.87;;;32.37;;
13374;SDS011;6756;51.354;15.754;2023-04-15T05:57:14;55.60;;;42.57;;
13374;SDS011;6756;51.354;15.754;2023-04-15T06:01:17;44.07;;;35.50;;
13374;SDS011;6756;51.354;15.754;2023-04-15T06:16:00;25.50;;;21.37;;
13374;SDS011;6756;51.354;15.754;2023-04-15T06:20:04;40.20;;;25.47;;
13374;SDS011;6756;51.354;15.754;2023-04-15T06:24:05;56.97;;;34.97;;
13374;SDS011;6756;51.354;15.754;2023-04-15T06:28:12;34.27;;;29.87;;
13374;SDS011;6756;51.354;15.754;2023-04-15T06:32:14;21.20;;;18.13;;
13374;SDS011;6756;51.354;15.754;2023-04-15T06:36:15;27.27;;;17.67;;
13374;SDS011;6756;51.354;15.754;2023-04-15T06:40:16;15.80;;;10.43;;
13374;SDS011;6756;51.354;15.754;2023-04-15T06:44:17;14.83;;;10.30;;
13374;SDS011;6756;51.354;15.754;2023-04-15T06:48:18;11.47;;;8.77;;
13374;SDS011;6756;51.354;15.754;2023-04-15T06:52:19;3.10;;;2.80;;
13374;SDS011;6756;51.354;15.754;2023-04-15T06:56:22;6.93;;;3.53;;
13374;SDS011;6756;51.354;15.754;2023-04-15T07:00:23;5.60;;;2.80;;
13374;SDS011;6756;51.354;15.754;2023-04-15T07:04:24;4.63;;;1.97;;
13374;SDS011;6756;51.354;15.754;2023-04-15T07:08:31;2.53;;;1.80;;
13374;SDS011;6756;51.354;15.754;2023-04-15T07:12:33;2.00;;;1.33;;
13374;SDS011;6756;51.354;15.754;2023-04-15T07:16:35;2.33;;;1.93;;
13374;SDS011;6756;51.354;15.754;2023-04-15T07:20:36;2.67;;;2.13;;
13374;SDS011;6756;51.354;15.754;2023-04-15T07:24:37;2.90;;;2.20;;
13374;SDS011;6756;51.354;15.754;2023-04-15T07:28:38;7.40;;;4.10;;
13374;SDS011;6756;51.354;15.754;2023-04-15T07:32:39;10.30;;;3.63;;
13374;SDS011;6756;51.354;15.754;2023-04-15T07:36:52;17.53;;;7.50;;
13374;SDS011;6756;51.354;15.754;2023-04-15T07:40:54;4.20;;;3.80;;
13374;SDS011;6756;51.354;15.754;2023-04-15T07:44:55;4.70;;;4.30;;
13374;SDS011;6756;51.354;15.754;2023-04-15T07:48:58;20.03;;;10.37;;
13374;SDS011;6756;51.354;15.754;2023-04-15T07:53:00;6.53;;;3.97;;
13374;SDS011;6756;51.354;15.754;2023-04-15T07:57:04;5.77;;;3.77;;
13374;SDS011;6756;51.354;15.754;2023-04-15T08:01:05;5.77;;;3.97;;
13374;SDS011;6756;51.354;15.754;2023-04-15T08:05:09;10.20;;;7.13;;
13374;SDS011;6756;51.354;15.754;2023-04-15T08:09:10;7.90;;;5.67;;
13374;SDS011;6756;51.354;15.754;2023-04-15T08:13:11;7.23;;;4.63;;
13374;SDS011;6756;51.354;15.754;2023-04-15T08:17:12;4.10;;;2.90;;
13374;SDS011;6756;51.354;15.754;2023-04-15T08:21:16;4.83;;;2.50;;
13374;SDS011;6756;51.354;15.754;2023-04-15T08:25:18;15.63;;;13.03;;
13374;SDS011;6756;51.354;15.754;2023-04-15T08:29:19;9.80;;;7.57;;
13374;SDS011;6756;51.354;15.754;2023-04-15T08:33:20;9.00;;;6.30;;
13374;SDS011;6756;51.354;15.754;2023-04-15T08:37:21;6.63;;;4.67;;
13374;SDS011;6756;51.354;15.754;2023-04-15T08:41:24;9.80;;;5.80;;
13374;SDS011;6756;51.354;15.754;2023-04-15T08:45:26;5.60;;;3.87;;
13374;SDS011;6756;51.354;15.754;2023-04-15T08:49:31;10.37;;;6.27;;
13374;SDS011;6756;51.354;15.754;2023-04-15T08:53:34;5.33;;;4.57;;
13374;SDS011;6756;51.354;15.754;2023-04-15T08:57:39;11.77;;;6.17;;
13374;SDS011;6756;51.354;15.754;2023-04-15T09:01:40;4.43;;;2.80;;
13374;SDS011;6756;51.354;15.754;2023-04-15T09:05:41;4.33;;;2.93;;
13374;SDS011;6756;51.354;15.754;2023-04-15T09:09:43;3.30;;;1.93;;
13374;SDS011;6756;51.354;15.754;2023-04-15T09:13:45;3.27;;;2.57;;
13374;SDS011;6756;51.354;15.754;2023-04-15T09:17:46;2.70;;;2.00;;
13374;SDS011;6756;51.354;15.754;2023-04-15T09:21:47;1.30;;;1.17;;
13374;SDS011;6756;51.354;15.754;2023-04-15T09:25:56;1.33;;;0.90;;
13374;SDS011;6756;51.354;15.754;2023-04-15T09:29:57;1.27;;;1.07;;
13374;SDS011;6756;51.354;15.754;2023-04-15T09:33:59;1.90;;;1.33;;
13374;SDS011;6756;51.354;15.754;2023-04-15T09:38:01;0.80;;;0.60;;
13374;SDS011;6756;51.354;15.754;2023-04-15T09:42:15;1.70;;;0.93;;
13374;SDS011;6756;51.354;15.754;2023-04-15T09:46:42;0.60;;;0.50;;
13374;SDS011;6756;51.354;15.754;2023-04-15T09:50:44;1.20;;;1.00;;
13374;SDS011;6756;51.354;15.754;2023-04-15T09:54:45;1.30;;;0.73;;
13374;SDS011;6756;51.354;15.754;2023-04-15T09:58:47;0.93;;;0.60;;
13374;SDS011;6756;51.354;15.754;2023-04-15T10:02:59;1.33;;;0.90;;
13374;SDS011;6756;51.354;15.754;2023-04-15T10:07:02;2.33;;;1.00;;
13374;SDS011;6756;51.354;15.754;2023-04-15T10:11:07;2.50;;;1.00;;
13374;SDS011;6756;51.354;15.754;2023-04-15T10:15:12;2.03;;;1.03;;
13374;SDS011;6756;51.354;15.754;2023-04-15T10:19:17;1.50;;;0.80;;
13374;SDS011;6756;51.354;15.754;2023-04-15T10:23:21;3.70;;;2.43;;
13374;SDS011;6756;51.354;15.754;2023-04-15T10:27:23;3.83;;;2.87;;
13374;SDS011;6756;51.354;15.754;2023-04-15T10:31:24;2.20;;;1.70;;
13374;SDS011;6756;51.354;15.754;2023-04-15T10:35:26;1.23;;;0.80;;
13374;SDS011;6756;51.354;15.754;2023-04-15T10:43:33;2.30;;;0.80;;
13374;SDS011;6756;51.354;15.754;2023-04-15T10:47:36;0.73;;;0.60;;
13374;SDS011;6756;51.354;15.754;2023-04-15T10:51:39;8.00;;;1.37;;
13374;SDS011;6756;51.354;15.754;2023-04-15T10:56:10;0.90;;;0.70;;
13374;SDS011;6756;51.354;15.754;2023-04-15T11:00:12;1.40;;;0.90;;
13374;SDS011;6756;51.354;15.754;2023-04-15T11:04:19;2.80;;;1.20;;
13374;SDS011;6756;51.354;15.754;2023-04-15T11:09:15;14.37;;;3.57;;
13374;SDS011;6756;51.354;15.754;2023-04-15T11:13:35;1.73;;;0.50;;
13374;SDS011;6756;51.354;15.754;2023-04-15T11:17:48;1.20;;;0.47;;
13374;SDS011;6756;51.354;15.754;2023-04-15T11:21:52;0.70;;;0.40;;
13374;SDS011;6756;51.354;15.754;2023-04-15T11:30:18;1.10;;;0.87;;
13374;SDS011;6756;51.354;15.754;2023-04-15T11:34:27;4.17;;;2.90;;
13374;SDS011;6756;51.354;15.754;2023-04-15T11:38:37;0.97;;;0.50;;
13374;SDS011;6756;51.354;15.754;2023-04-15T11:42:43;2.07;;;0.50;;
13374;SDS011;6756;51.354;15.754;2023-04-15T11:46:47;1.00;;;0.70;;
13374;SDS011;6756;51.354;15.754;2023-04-15T11:50:58;0.70;;;0.50;;
13374;SDS011;6756;51.354;15.754;2023-04-15T11:55:13;5.87;;;1.63;;
13374;SDS011;6756;51.354;15.754;2023-04-15T11:59:18;1.70;;;0.60;;
13374;SDS011;6756;51.354;15.754;2023-04-15T12:03:23;1.27;;;0.40;;
13374;SDS011;6756;51.354;15.754;2023-04-15T12:07:30;0.60;;;0.30;;
13374;SDS011;6756;51.354;15.754;2023-04-15T12:11:33;0.77;;;0.30;;
13374;SDS011;6756;51.354;15.754;2023-04-15T12:15:37;1.17;;;0.73;;
13374;SDS011;6756;51.354;15.754;2023-04-15T12:19:41;2.77;;;0.93;;
13374;SDS011;6756;51.354;15.754;2023-04-15T12:28:29;2.67;;;1.27;;
13374;SDS011;6756;51.354;15.754;2023-04-15T12:32:41;10.77;;;6.40;;
13374;SDS011;6756;51.354;15.754;2023-04-15T12:36:48;1.73;;;0.50;;
13374;SDS011;6756;51.354;15.754;2023-04-15T12:40:49;0.57;;;0.30;;
13374;SDS011;6756;51.354;15.754;2023-04-15T12:44:51;1.10;;;0.30;;
13374;SDS011;6756;51.354;15.754;2023-04-15T12:48:55;1.80;;;1.03;;
13374;SDS011;6756;51.354;15.754;2023-04-15T12:53:02;1.20;;;0.83;;
13374;SDS011;6756;51.354;15.754;2023-04-15T12:57:06;0.60;;;0.40;;
13374;SDS011;6756;51.354;15.754;2023-04-15T13:01:10;1.50;;;1.10;;
13374;SDS011;6756;51.354;15.754;2023-04-15T13:05:21;0.97;;;0.80;;
13374;SDS011;6756;51.354;15.754;2023-04-15T13:09:22;2.63;;;1.63;;
13374;SDS011;6756;51.354;15.754;2023-04-15T13:13:24;1.90;;;1.07;;
13374;SDS011;6756;51.354;15.754;2023-04-15T13:17:26;4.57;;;2.37;;
13374;SDS011;6756;51.354;15.754;2023-04-15T13:21:30;0.70;;;0.50;;
13374;SDS011;6756;51.354;15.754;2023-04-15T13:25:35;1.17;;;0.70;;
13374;SDS011;6756;51.354;15.754;2023-04-15T13:29:36;1.60;;;0.67;;
13374;SDS011;6756;51.354;15.754;2023-04-15T13:33:38;0.90;;;0.63;;
13374;SDS011;6756;51.354;15.754;2023-04-15T13:37:39;8.20;;;5.70;;
13374;SDS011;6756;51.354;15.754;2023-04-15T13:41:43;2.80;;;1.87;;
13374;SDS011;6756;51.354;15.754;2023-04-15T13:45:51;1.93;;;1.10;;
13374;SDS011;6756;51.354;15.754;2023-04-15T13:49:52;1.40;;;0.73;;
13374;SDS011;6756;51.354;15.754;2023-04-15T13:53:56;6.27;;;4.10;;
13374;SDS011;6756;51.354;15.754;2023-04-15T13:57:59;1.77;;;1.27;;
13374;SDS011;6756;51.354;15.754;2023-04-15T14:02:00;1.00;;;0.70;;
13374;SDS011;6756;51.354;15.754;2023-04-15T14:06:24;1.50;;;0.80;;
13374;SDS011;6756;51.354;15.754;2023-04-15T14:10:26;3.67;;;2.13;;
13374;SDS011;6756;51.354;15.754;2023-04-15T14:14:30;2.30;;;1.50;;
13374;SDS011;6756;51.354;15.754;2023-04-15T14:18:32;2.73;;;1.83;;
13374;SDS011;6756;51.354;15.754;2023-04-15T14:22:39;1.80;;;0.83;;
13374;SDS011;6756;51.354;15.754;2023-04-15T14:26:42;1.90;;;1.00;;
13374;SDS011;6756;51.354;15.754;2023-04-15T14:30:46;2.93;;;1.90;;
13374;SDS011;6756;51.354;15.754;2023-04-15T14:34:47;1.60;;;1.33;;
13374;SDS011;6756;51.354;15.754;2023-04-15T14:38:48;1.13;;;0.90;;
13374;SDS011;6756;51.354;15.754;2023-04-15T14:42:49;7.63;;;3.07;;
13374;SDS011;6756;51.354;15.754;2023-04-15T14:46:50;4.47;;;2.63;;
13374;SDS011;6756;51.354;15.754;2023-04-15T14:51:05;4.30;;;2.67;;
13374;SDS011;6756;51.354;15.754;2023-04-15T14:55:10;9.57;;;4.57;;
13374;SDS011;6756;51.354;15.754;2023-04-15T14:59:12;4.20;;;1.70;;
13374;SDS011;6756;51.354;15.754;2023-04-15T15:03:13;8.63;;;4.80;;
13374;SDS011;6756;51.354;15.754;2023-04-15T15:07:15;5.83;;;2.70;;
13374;SDS011;6756;51.354;15.754;2023-04-15T15:11:17;4.70;;;2.43;;
13374;SDS011;6756;51.354;15.754;2023-04-15T15:15:32;7.03;;;4.00;;
13374;SDS011;6756;51.354;15.754;2023-04-15T15:19:35;2.87;;;1.60;;
13374;SDS011;6756;51.354;15.754;2023-04-15T15:23:36;2.90;;;1.53;;
13374;SDS011;6756;51.354;15.754;2023-04-15T15:27:37;2.93;;;1.50;;
13374;SDS011;6756;51.354;15.754;2023-04-15T15:31:42;2.87;;;1.90;;
13374;SDS011;6756;51.354;15.754;2023-04-15T15:35:45;7.67;;;4.57;;
13374;SDS011;6756;51.354;15.754;2023-04-15T15:40:04;3.93;;;2.60;;
13374;SDS011;6756;51.354;15.754;2023-04-15T15:44:17;1.70;;;1.20;;
13374;SDS011;6756;51.354;15.754;2023-04-15T15:48:18;1.20;;;0.90;;
13374;SDS011;6756;51.354;15.754;2023-04-15T15:56:53;1.43;;;0.73;;
13374;SDS011;6756;51.354;15.754;2023-04-15T16:00:54;1.13;;;0.80;;
13374;SDS011;6756;51.354;15.754;2023-04-15T16:05:03;1.03;;;0.60;;
13374;SDS011;6756;51.354;15.754;2023-04-15T16:09:17;1.03;;;0.60;;
13374;SDS011;6756;51.354;15.754;2023-04-15T16:13:18;0.80;;;0.70;;
13374;SDS011;6756;51.354;15.754;2023-04-15T16:17:21;0.93;;;0.73;;
13374;SDS011;6756;51.354;15.754;2023-04-15T16:21:22;1.93;;;1.27;;
13374;SDS011;6756;51.354;15.754;2023-04-15T16:25:29;2.43;;;1.30;;
13374;SDS011;6756;51.354;15.754;2023-04-15T16:29:30;1.77;;;1.10;;
13374;SDS011;6756;51.354;15.754;2023-04-15T16:33:36;1.97;;;1.27;;
13374;SDS011;6756;51.354;15.754;2023-04-15T16:37:38;1.10;;;0.80;;
13374;SDS011;6756;51.354;15.754;2023-04-15T16:41:39;0.80;;;0.67;;
13374;SDS011;6756;51.354;15.754;2023-04-15T16:45:49;1.00;;;0.70;;
13374;SDS011;6756;51.354;15.754;2023-04-15T16:49:50;0.83;;;0.70;;
13374;SDS011;6756;51.354;15.754;2023-04-15T16:53:56;1.30;;;0.73;;
13374;SDS011;6756;51.354;15.754;2023-04-15T16:57:57;2.30;;;1.30;;
13374;SDS011;6756;51.354;15.754;2023-04-15T17:01:58;1.20;;;1.10;;
13374;SDS011;6756;51.354;15.754;2023-04-15T17:05:59;1.53;;;1.07;;
13374;SDS011;6756;51.354;15.754;2023-04-15T17:10:13;2.53;;;1.70;;
13374;SDS011;6756;51.354;15.754;2023-04-15T17:14:17;1.70;;;1.53;;
13374;SDS011;6756;51.354;15.754;2023-04-15T17:18:21;2.00;;;1.77;;
13374;SDS011;6756;51.354;15.754;2023-04-15T17:22:22;2.20;;;1.70;;
13374;SDS011;6756;51.354;15.754;2023-04-15T17:26:25;2.60;;;1.60;;
13374;SDS011;6756;51.354;15.754;2023-04-15T17:30:51;2.30;;;1.90;;
13374;SDS011;6756;51.354;15.754;2023-04-15T17:35:20;1.97;;;1.60;;
13374;SDS011;6756;51.354;15.754;2023-04-15T17:39:25;2.10;;;1.80;;
13374;SDS011;6756;51.354;15.754;2023-04-15T17:43:53;2.03;;;1.60;;
13374;SDS011;6756;51.354;15.754;2023-04-15T17:47:57;2.20;;;2.00;;
13374;SDS011;6756;51.354;15.754;2023-04-15T17:52:01;2.57;;;1.80;;
13374;SDS011;6756;51.354;15.754;2023-04-15T17:56:05;2.07;;;1.87;;
13374;SDS011;6756;51.354;15.754;2023-04-15T18:00:12;2.33;;;1.70;;
13374;SDS011;6756;51.354;15.754;2023-04-15T18:04:18;3.10;;;2.00;;
13374;SDS011;6756;51.354;15.754;2023-04-15T18:08:21;2.17;;;1.73;;
13374;SDS011;6756;51.354;15.754;2023-04-15T18:12:23;2.40;;;1.90;;
13374;SDS011;6756;51.354;15.754;2023-04-15T18:16:27;2.13;;;1.93;;
13374;SDS011;6756;51.354;15.754;2023-04-15T18:20:28;2.10;;;1.90;;
13374;SDS011;6756;51.354;15.754;2023-04-15T18:24:32;2.30;;;1.90;;
13374;SDS011;6756;51.354;15.754;2023-04-15T18:28:53;4.43;;;2.20;;
13374;SDS011;6756;51.354;15.754;2023-04-15T18:33:13;2.47;;;2.03;;
13374;SDS011;6756;51.354;15.754;2023-04-15T18:41:46;2.00;;;1.67;;
13374;SDS011;6756;51.354;15.754;2023-04-15T18:45:54;2.10;;;1.70;;
13374;SDS011;6756;51.354;15.754;2023-04-15T18:50:09;2.57;;;2.23;;
13374;SDS011;6756;51.354;15.754;2023-04-15T18:54:19;2.47;;;2.00;;
13374;SDS011;6756;51.354;15.754;2023-04-15T18:58:33;2.03;;;1.83;;
13374;SDS011;6756;51.354;15.754;2023-04-15T19:02:34;2.63;;;2.10;;
13374;SDS011;6756;51.354;15.754;2023-04-15T19:07:01;2.47;;;2.23;;
13374;SDS011;6756;51.354;15.754;2023-04-15T19:15:22;2.40;;;2.20;;
13374;SDS011;6756;51.354;15.754;2023-04-15T19:19:28;2.20;;;2.00;;
13374;SDS011;6756;51.354;15.754;2023-04-15T19:23:54;2.20;;;2.00;;
13374;SDS011;6756;51.354;15.754;2023-04-15T19:28:02;2.73;;;2.10;;
13374;SDS011;6756;51.354;15.754;2023-04-15T19:32:28;2.93;;;2.10;;
13374;SDS011;6756;51.354;15.754;2023-04-15T19:36:30;2.33;;;1.80;;
13374;SDS011;6756;51.354;15.754;2023-04-15T19:45:14;3.40;;;2.13;;
13374;SDS011;6756;51.354;15.754;2023-04-15T19:49:15;4.23;;;2.30;;
13374;SDS011;6756;51.354;15.754;2023-04-15T19:53:30;2.53;;;2.30;;
13374;SDS011;6756;51.354;15.754;2023-04-15T19:57:35;3.40;;;2.47;;
13374;SDS011;6756;51.354;15.754;2023-04-15T20:01:53;3.27;;;2.83;;
13374;SDS011;6756;51.354;15.754;2023-04-15T20:05:57;5.73;;;3.27;;
13374;SDS011;6756;51.354;15.754;2023-04-15T20:10:21;3.73;;;2.93;;
13374;SDS011;6756;51.354;15.754;2023-04-15T20:14:36;3.93;;;3.10;;
13374;SDS011;6756;51.354;15.754;2023-04-15T20:18:45;5.73;;;3.13;;
13374;SDS011;6756;51.354;15.754;2023-04-15T20:22:47;2.63;;;2.37;;
13374;SDS011;6756;51.354;15.754;2023-04-15T20:26:54;2.50;;;2.30;;
13374;SDS011;6756;51.354;15.754;2023-04-15T20:30:57;2.53;;;2.20;;
13374;SDS011;6756;51.354;15.754;2023-04-15T20:35:03;2.90;;;2.27;;
13374;SDS011;6756;51.354;15.754;2023-04-15T20:39:07;2.83;;;2.43;;
13374;SDS011;6756;51.354;15.754;2023-04-15T20:43:09;3.27;;;2.80;;
13374;SDS011;6756;51.354;15.754;2023-04-15T20:47:13;3.90;;;2.30;;
13374;SDS011;6756;51.354;15.754;2023-04-15T20:55:57;3.37;;;2.60;;
13374;SDS011;6756;51.354;15.754;2023-04-15T21:00:04;2.87;;;2.47;;
13374;SDS011;6756;51.354;15.754;2023-04-15T21:04:08;5.20;;;2.47;;
13374;SDS011;6756;51.354;15.754;2023-04-15T21:08:17;2.87;;;2.23;;
13374;SDS011;6756;51.354;15.754;2023-04-15T21:12:28;4.20;;;2.30;;
13374;SDS011;6756;51.354;15.754;2023-04-15T21:16:33;2.83;;;2.53;;
13374;SDS011;6756;51.354;15.754;2023-04-15T21:20:34;3.93;;;2.83;;
13374;SDS011;6756;51.354;15.754;2023-04-15T21:24:35;2.83;;;2.53;;
13374;SDS011;6756;51.354;15.754;2023-04-15T21:28:39;3.17;;;2.67;;
13374;SDS011;6756;51.354;15.754;2023-04-15T21:32:50;3.33;;;2.33;;
13374;SDS011;6756;51.354;15.754;2023-04-15T21:37:04;2.67;;;2.33;;
13374;SDS011;6756;51.354;15.754;2023-04-15T21:41:20;3.60;;;2.30;;
13374;SDS011;6756;51.354;15.754;2023-04-15T21:45:21;2.83;;;2.03;;
13374;SDS011;6756;51.354;15.754;2023-04-15T21:49:33;4.00;;;2.57;;
13374;SDS011;6756;51.354;15.754;2023-04-15T21:53:45;3.27;;;2.70;;
13374;SDS011;6756;51.354;15.754;2023-04-15T21:57:55;3.17;;;2.70;;
13374;SDS011;6756;51.354;15.754;2023-04-15T22:02:08;2.80;;;2.20;;
13374;SDS011;6756;51.354;15.754;2023-04-15T22:06:13;2.77;;;2.37;;
13374;SDS011;6756;51.354;15.754;2023-04-15T22:10:20;3.50;;;2.43;;
13374;SDS011;6756;51.354;15.754;2023-04-15T22:14:24;4.00;;;2.97;;
13374;SDS011;6756;51.354;15.754;2023-04-15T22:18:33;4.07;;;3.20;;
13374;SDS011;6756;51.354;15.754;2023-04-15T22:22:34;3.33;;;2.93;;
13374;SDS011;6756;51.354;15.754;2023-04-15T22:26:47;3.37;;;2.87;;
13374;SDS011;6756;51.354;15.754;2023-04-15T22:31:06;3.07;;;2.77;;
13374;SDS011;6756;51.354;15.754;2023-04-15T22:35:10;2.77;;;2.43;;
13374;SDS011;6756;51.354;15.754;2023-04-15T22:39:11;3.20;;;2.70;;
13374;SDS011;6756;51.354;15.754;2023-04-15T22:43:19;4.03;;;3.20;;
13374;SDS011;6756;51.354;15.754;2023-04-15T22:47:26;4.60;;;3.53;;
13374;SDS011;6756;51.354;15.754;2023-04-15T22:51:27;5.37;;;4.27;;
13374;SDS011;6756;51.354;15.754;2023-04-15T22:55:29;4.67;;;3.63;;
13374;SDS011;6756;51.354;15.754;2023-04-15T22:59:35;3.93;;;3.13;;
13374;SDS011;6756;51.354;15.754;2023-04-15T23:03:39;3.73;;;2.60;;
13374;SDS011;6756;51.354;15.754;2023-04-15T23:07:55;4.57;;;2.97;;
13374;SDS011;6756;51.354;15.754;2023-04-15T23:11:56;4.20;;;3.23;;
13374;SDS011;6756;51.354;15.754;2023-04-15T23:15:57;6.90;;;4.10;;
13374;SDS011;6756;51.354;15.754;2023-04-15T23:20:01;4.97;;;3.90;;
13374;SDS011;6756;51.354;15.754;2023-04-15T23:24:15;4.63;;;3.37;;
13374;SDS011;6756;51.354;15.754;2023-04-15T23:28:29;5.43;;;3.73;;
13374;SDS011;6756;51.354;15.754;2023-04-15T23:32:31;5.77;;;4.30;;
13374;SDS011;6756;51.354;15.754;2023-04-15T23:36:34;5.60;;;3.47;;
13374;SDS011;6756;51.354;15.754;2023-04-15T23:40:36;7.07;;;4.10;;
13374;SDS011;6756;51.354;15.754;2023-04-15T23:44:40;6.07;;;3.27;;
13374;SDS011;6756;51.354;15.754;2023-04-15T23:48:50;5.70;;;3.63;;
13374;SDS011;6756;51.354;15.754;2023-04-15T23:52:51;4.90;;;3.70;;
13374;SDS011;6756;51.354;15.754;2023-04-15T23:56:55;7.23;;;4.70;;
